Round Valley, California
Current Conditions -  °F | °C
As of 6:56 AM on Monday 22 Dec 2014 (Local Time) from KBIH Reporting Station
Clear Clear  
Wind Chill: 38°   Ceiling: Unl
Heat Index: 43°   Visibility: 10mi
Dew Point: 24°   Wind: 9mph
Humidity: 47%   Direction: 310°NW
Pressure: 30.2"   Gusts: NA
Location:  37.4772°N, 118.401°W
Report Text: KBIH 221456Z AUTO 31008KT 10SM CLR 06/M04 A3020 RMK AO2 SLP217 T00611044 57008
Loading
Personal Weather Stations






























Interactive Weather Map New forecast layout! Learn more

10-Day Weather Forecast

Advertisements
Track Severe Weather on mobile